sim
Sign-in with your pilot id or email,
or register
Callsign
Passwort

Schedule Details

Flight Number: EWG2682 (2)
Departure: Stuttgart Airport (EDDS) at 08:40
Arrival: Thessaloniki International Airport (LGTS) at 11:00
Route: Eurowings Passenger Schedule. Enter filed route here before submitting Pirep.

Weather Information
Getting current METAR information for EDDS 211620Z 35006KT 9999 FEW042 12/04 Q1028 NOSIG
Getting current METAR information for LGTS 211620Z 36006KT CAVOK 14/00 Q1022 NOSIG

Schedule Frequency

Route Map